createdAt,value
2023-05-19T00:01:19.778Z,2.27
2023-05-19T00:03:52.649Z,2.40
2023-05-19T00:06:25.280Z,2.20
2023-05-19T00:08:59.688Z,2.30
2023-05-19T00:11:27.660Z,2.37
2023-05-19T00:13:55.514Z,2.30
2023-05-19T00:16:23.349Z,2.30
2023-05-19T00:18:51.757Z,2.10
2023-05-19T00:21:18.938Z,2.40
2023-05-19T00:23:46.136Z,2.67
2023-05-19T00:26:13.605Z,2.23
2023-05-19T00:28:40.718Z,2.10
2023-05-19T00:31:07.971Z,2.60
2023-05-19T00:33:35.490Z,2.40
2023-05-19T00:36:03.649Z,2.07
2023-05-19T00:38:35.609Z,2.43
2023-05-19T00:41:03.641Z,2.40
2023-05-19T00:43:30.928Z,2.17
2023-05-19T00:45:58.463Z,2.23
2023-05-19T00:48:26.099Z,2.10
2023-05-19T00:51:01.938Z,2.43
2023-05-19T00:53:29.536Z,2.13
2023-05-19T00:55:56.834Z,2.07
2023-05-19T00:58:25.938Z,2.00
2023-05-19T01:00:56.011Z,2.07
2023-05-19T01:03:23.429Z,2.30
2023-05-19T01:05:53.691Z,2.33
2023-05-19T01:08:21.100Z,2.10
2023-05-19T01:10:48.257Z,2.20
2023-05-19T01:13:15.648Z,1.80
2023-05-19T01:15:52.875Z,2.20
2023-05-19T01:18:26.372Z,1.90
2023-05-19T01:20:59.300Z,2.00
2023-05-19T01:23:43.353Z,1.90
2023-05-19T01:26:10.463Z,2.07
2023-05-19T01:28:56.152Z,2.20
2023-05-19T01:31:24.353Z,2.23
2023-05-19T01:33:53.052Z,1.70
2023-05-19T01:36:21.441Z,2.17
2023-05-19T01:38:49.203Z,2.17
2023-05-19T01:41:16.882Z,2.30
2023-05-19T01:43:44.138Z,2.20
2023-05-19T01:46:11.582Z,1.80
2023-05-19T01:48:39.154Z,2.20
2023-05-19T01:51:06.306Z,1.90
2023-05-19T01:53:33.483Z,2.10
2023-05-19T01:56:00.688Z,2.33
2023-05-19T01:58:33.843Z,2.03
2023-05-19T02:01:24.205Z,2.03
2023-05-19T02:03:54.555Z,2.30
2023-05-19T02:06:40.733Z,2.00
2023-05-19T02:09:12.936Z,2.00
2023-05-19T02:12:03.418Z,2.27
2023-05-19T02:14:34.494Z,2.10
2023-05-19T02:17:01.746Z,2.20
2023-05-19T02:19:42.571Z,2.23
2023-05-19T02:22:09.681Z,2.27
2023-05-19T02:24:37.607Z,2.10
2023-05-19T02:27:05.136Z,2.20
2023-05-19T02:29:32.271Z,2.30
2023-05-19T02:31:59.366Z,2.27
2023-05-19T02:34:27.049Z,2.63
2023-05-19T02:36:54.132Z,2.10
2023-05-19T02:39:21.230Z,2.10
2023-05-19T02:41:48.377Z,2.10
2023-05-19T02:44:15.581Z,2.20
2023-05-19T02:46:42.757Z,2.10
2023-05-19T02:49:10.196Z,2.20
2023-05-19T02:51:37.293Z,2.10
2023-05-19T02:54:04.412Z,2.30
2023-05-19T02:56:31.848Z,2.30
2023-05-19T02:58:58.940Z,2.03
2023-05-19T03:01:26.257Z,2.47
2023-05-19T03:03:53.557Z,2.30
2023-05-19T03:06:23.316Z,2.20
2023-05-19T03:08:50.862Z,2.20
2023-05-19T03:11:18.211Z,2.30
2023-05-19T03:13:45.304Z,2.20
2023-05-19T03:16:12.598Z,2.20
2023-05-19T03:18:39.878Z,2.13
2023-05-19T03:21:07.068Z,2.00
2023-05-19T03:23:34.305Z,2.30
2023-05-19T03:26:01.432Z,2.40
2023-05-19T03:28:28.507Z,2.27
2023-05-19T03:30:55.748Z,2.00
2023-05-19T03:33:23.909Z,2.30
2023-05-19T03:35:53.003Z,2.10
2023-05-19T03:38:20.231Z,2.30
2023-05-19T03:40:47.340Z,2.17
2023-05-19T03:43:16.016Z,2.00
2023-05-19T03:45:43.244Z,2.20
2023-05-19T03:48:10.729Z,2.20
2023-05-19T03:50:38.049Z,2.13
2023-05-19T03:53:05.324Z,2.37
2023-05-19T03:55:32.449Z,2.50
2023-05-19T03:57:59.619Z,2.10
2023-05-19T04:00:26.720Z,2.40
2023-05-19T04:02:54.469Z,2.60
2023-05-19T04:05:21.688Z,2.27
2023-05-19T04:07:48.794Z,2.10
2023-05-19T04:10:16.305Z,2.67
2023-05-19T04:12:43.400Z,2.60
2023-05-19T04:15:13.403Z,2.50
2023-05-19T04:17:41.074Z,2.47
2023-05-19T04:20:08.435Z,2.30
2023-05-19T04:22:35.556Z,2.43
2023-05-19T04:25:04.744Z,2.30
2023-05-19T04:27:32.046Z,2.60
2023-05-19T04:29:59.409Z,2.40
2023-05-19T04:32:26.603Z,2.60
2023-05-19T04:34:53.746Z,2.50
2023-05-19T04:37:21.064Z,2.50
2023-05-19T04:39:48.280Z,2.30
2023-05-19T04:42:19.090Z,2.37
2023-05-19T04:44:46.507Z,2.60
2023-05-19T04:47:14.997Z,2.70
2023-05-19T04:49:42.165Z,2.30
2023-05-19T04:52:12.682Z,2.00
2023-05-19T04:54:41.744Z,2.57
2023-05-19T04:57:10.422Z,2.40
2023-05-19T04:59:37.587Z,2.40
2023-05-19T05:02:05.080Z,2.40
2023-05-19T05:04:32.548Z,2.10
2023-05-19T05:06:59.637Z,2.23
2023-05-19T05:09:27.071Z,2.13
2023-05-19T05:11:54.383Z,2.10
2023-05-19T05:14:21.606Z,2.13
2023-05-19T05:16:48.937Z,2.30
2023-05-19T05:19:16.214Z,2.00
2023-05-19T05:21:43.523Z,2.40
2023-05-19T05:24:11.288Z,2.17
2023-05-19T05:26:38.579Z,2.57
2023-05-19T05:29:06.433Z,2.17
2023-05-19T05:31:33.910Z,2.10
2023-05-19T05:34:01.416Z,2.20
2023-05-19T05:36:28.520Z,2.17
2023-05-19T05:38:55.699Z,2.10
2023-05-19T05:41:22.860Z,2.13
2023-05-19T05:43:49.940Z,2.10
2023-05-19T05:46:17.556Z,2.30
2023-05-19T05:48:44.842Z,2.43
2023-05-19T05:51:12.097Z,2.00
2023-05-19T05:53:43.403Z,2.20
2023-05-19T05:56:11.200Z,2.20
2023-05-19T05:58:40.542Z,2.30
2023-05-19T06:01:11.109Z,2.50
2023-05-19T06:03:40.128Z,2.17
2023-05-19T06:06:07.348Z,2.43
2023-05-19T06:08:35.197Z,2.23
2023-05-19T06:11:08.263Z,2.10
2023-05-19T06:13:39.240Z,2.23
2023-05-19T06:16:06.601Z,2.10
2023-05-19T06:18:33.716Z,2.03
2023-05-19T06:21:01.970Z,2.30
2023-05-19T06:23:29.131Z,2.50
2023-05-19T06:25:56.620Z,2.50
2023-05-19T06:28:23.747Z,2.27
2023-05-19T06:30:50.840Z,2.47
2023-05-19T06:33:17.939Z,2.40
2023-05-19T06:35:45.071Z,2.63
2023-05-19T06:38:12.173Z,1.90
2023-05-19T06:40:39.265Z,2.33
2023-05-19T06:43:06.519Z,2.23
2023-05-19T06:45:33.737Z,2.53
2023-05-19T06:48:00.942Z,2.60
2023-05-19T06:50:28.236Z,2.90
2023-05-19T06:52:57.143Z,3.27
2023-05-19T06:55:24.337Z,2.80
2023-05-19T06:57:51.438Z,2.67
2023-05-19T07:00:31.487Z,2.80
2023-05-19T07:02:58.796Z,2.90
2023-05-19T07:05:25.992Z,2.77
2023-05-19T07:07:53.102Z,2.50
2023-05-19T07:10:22.200Z,2.40
2023-05-19T07:12:49.298Z,2.80
2023-05-19T07:15:16.460Z,2.83
2023-05-19T07:17:43.642Z,2.83
2023-05-19T07:20:11.028Z,2.80
2023-05-19T07:22:39.876Z,2.30
2023-05-19T07:25:08.339Z,2.50
2023-05-19T07:27:35.856Z,2.40
2023-05-19T07:30:03.964Z,2.53
2023-05-19T07:32:31.082Z,2.47
2023-05-19T07:34:58.226Z,2.50
2023-05-19T07:37:26.289Z,2.40
2023-05-19T07:39:53.418Z,2.60
2023-05-19T07:42:20.538Z,2.20
2023-05-19T07:44:47.681Z,2.83
2023-05-19T07:47:15.077Z,2.20
2023-05-19T07:49:42.153Z,2.13
2023-05-19T07:52:09.307Z,2.00
2023-05-19T07:54:36.412Z,2.13
2023-05-19T07:57:03.594Z,1.90
2023-05-19T07:59:30.702Z,1.70
2023-05-19T08:01:57.895Z,1.53
2023-05-19T08:04:25.012Z,1.70
2023-05-19T08:06:52.955Z,2.20
2023-05-19T08:09:20.491Z,1.73
2023-05-19T08:11:47.640Z,1.83
2023-05-19T08:14:14.763Z,1.90
2023-05-19T08:16:43.109Z,2.27
2023-05-19T08:19:10.353Z,2.00
2023-05-19T08:21:37.481Z,1.90
2023-05-19T08:24:04.647Z,2.37
2023-05-19T08:26:31.736Z,2.50
2023-05-19T08:28:58.887Z,2.40
2023-05-19T08:31:26.425Z,2.30
2023-05-19T08:33:53.574Z,2.57
2023-05-19T08:36:21.909Z,2.30
2023-05-19T08:38:49.023Z,2.30
2023-05-19T08:41:16.526Z,2.67
2023-05-19T08:43:43.785Z,2.30
2023-05-19T08:46:15.265Z,2.63
2023-05-19T08:48:43.235Z,2.53
2023-05-19T08:51:31.948Z,2.53
2023-05-19T08:54:03.460Z,2.57
2023-05-19T08:56:32.127Z,2.50
2023-05-19T08:59:00.419Z,2.40
2023-05-19T09:01:28.905Z,2.50
2023-05-19T09:03:56.262Z,3.00
2023-05-19T09:06:23.851Z,2.50
2023-05-19T09:08:51.021Z,2.30
2023-05-19T09:11:18.131Z,2.30
2023-05-19T09:13:45.254Z,2.30
2023-05-19T09:16:12.460Z,2.20
2023-05-19T09:18:41.313Z,2.10
2023-05-19T09:21:11.051Z,2.00
2023-05-19T09:23:38.182Z,1.93
2023-05-19T09:26:08.063Z,2.07
2023-05-19T09:28:36.558Z,2.03
2023-05-19T09:31:08.543Z,1.80
2023-05-19T09:33:40.121Z,2.10
2023-05-19T09:36:08.878Z,1.93
2023-05-19T09:38:36.886Z,2.30
2023-05-19T09:41:04.655Z,2.50
2023-05-19T09:43:33.912Z,2.00
2023-05-19T09:46:01.869Z,2.00
2023-05-19T09:48:29.117Z,2.50
2023-05-19T09:50:58.229Z,2.13
2023-05-19T09:53:25.929Z,2.10
2023-05-19T09:55:59.415Z,2.10
2023-05-19T09:58:27.839Z,1.97
2023-05-19T10:00:55.013Z,2.00
2023-05-19T10:03:26.171Z,2.50
2023-05-19T10:05:54.165Z,2.30
2023-05-19T10:08:21.771Z,2.50
2023-05-19T10:10:49.100Z,2.30
2023-05-19T10:13:16.763Z,2.40
2023-05-19T10:15:57.257Z,2.40
2023-05-19T10:18:27.752Z,2.10
2023-05-19T10:20:55.133Z,2.30
2023-05-19T10:23:22.549Z,1.97
2023-05-19T10:25:51.171Z,2.20
2023-05-19T10:28:21.017Z,2.40
2023-05-19T10:30:50.326Z,2.20
2023-05-19T10:33:18.659Z,2.30
2023-05-19T10:36:02.810Z,2.30
2023-05-19T10:38:29.901Z,2.10
2023-05-19T10:41:11.813Z,1.93
2023-05-19T10:43:56.989Z,2.10
2023-05-19T10:46:25.896Z,2.07
2023-05-19T10:48:53.273Z,2.03
2023-05-19T10:51:20.457Z,2.00
2023-05-19T10:53:49.873Z,2.07
2023-05-19T10:56:31.074Z,2.07
2023-05-19T10:58:58.276Z,2.30
2023-05-19T11:01:31.140Z,2.27
2023-05-19T11:04:04.736Z,2.20
2023-05-19T11:06:32.919Z,2.00
2023-05-19T11:09:10.521Z,2.20
2023-05-19T11:11:51.066Z,2.17
2023-05-19T11:14:19.709Z,2.00
2023-05-19T11:16:47.938Z,2.00
2023-05-19T11:19:35.039Z,2.07
2023-05-19T11:22:12.730Z,2.00
2023-05-19T11:24:40.173Z,1.83
2023-05-19T11:27:27.322Z,2.30
2023-05-19T11:30:16.070Z,2.30
2023-05-19T11:32:43.963Z,1.77
2023-05-19T11:35:11.208Z,1.80
2023-05-19T11:37:40.423Z,1.93
2023-05-19T11:40:08.236Z,2.07
2023-05-19T11:42:36.198Z,2.13
2023-05-19T11:45:03.916Z,2.20
2023-05-19T11:47:46.014Z,2.50
2023-05-19T11:50:20.719Z,2.30
2023-05-19T11:52:47.924Z,2.33
2023-05-19T11:55:22.441Z,2.30
2023-05-19T11:58:03.858Z,2.00
2023-05-19T12:00:39.473Z,2.17
2023-05-19T12:03:07.273Z,2.03
2023-05-19T12:05:39.951Z,2.20
2023-05-19T12:08:09.531Z,2.07
2023-05-19T12:10:36.826Z,2.43
2023-05-19T12:13:04.439Z,1.97
2023-05-19T12:15:33.567Z,2.30
2023-05-19T12:18:01.715Z,1.90
2023-05-19T12:20:31.957Z,2.30
2023-05-19T12:22:59.710Z,2.30
2023-05-19T12:25:27.026Z,2.30
2023-05-19T12:27:58.587Z,2.10
2023-05-19T12:30:27.661Z,2.20
2023-05-19T12:32:55.252Z,2.23
2023-05-19T12:35:24.617Z,2.30
2023-05-19T12:37:52.393Z,2.27
2023-05-19T12:40:19.477Z,2.40
2023-05-19T12:42:48.066Z,2.13
2023-05-19T12:45:15.337Z,2.07
2023-05-19T12:47:42.481Z,2.50
2023-05-19T12:50:10.472Z,2.60
2023-05-19T12:52:43.423Z,2.40
2023-05-19T12:55:11.916Z,2.40
2023-05-19T12:57:40.414Z,2.80
2023-05-19T13:00:07.909Z,2.60
2023-05-19T13:02:36.343Z,2.03
2023-05-19T13:05:04.894Z,2.53
2023-05-19T13:07:32.486Z,2.50
2023-05-19T13:09:59.610Z,2.57
2023-05-19T13:12:27.075Z,2.47
2023-05-19T13:14:55.659Z,2.50
2023-05-19T13:17:23.074Z,2.77
2023-05-19T13:19:50.321Z,2.80
2023-05-19T13:22:17.689Z,3.33
2023-05-19T13:24:44.780Z,2.57
2023-05-19T13:27:11.875Z,2.70
2023-05-19T13:29:39.124Z,2.60
2023-05-19T13:32:06.351Z,2.70
2023-05-19T13:34:33.512Z,2.80
2023-05-19T13:37:01.268Z,2.83
2023-05-19T13:39:28.439Z,3.27
2023-05-19T13:41:55.592Z,3.40
2023-05-19T13:44:25.761Z,3.13
2023-05-19T13:46:52.893Z,2.90
2023-05-19T13:49:20.067Z,3.50
2023-05-19T13:51:47.199Z,2.77
2023-05-19T13:54:14.315Z,2.90
2023-05-19T13:56:43.053Z,3.00
2023-05-19T13:59:10.523Z,3.10
2023-05-19T14:01:37.912Z,2.90
2023-05-19T14:04:05.454Z,2.77
2023-05-19T14:06:33.186Z,3.07
2023-05-19T14:09:00.424Z,2.80
2023-05-19T14:11:27.534Z,3.37
2023-05-19T14:13:55.144Z,3.30
2023-05-19T14:16:22.957Z,3.40
2023-05-19T14:18:50.223Z,3.43
2023-05-19T14:21:17.751Z,3.20
2023-05-19T14:23:45.159Z,3.20
2023-05-19T14:26:12.311Z,3.57
2023-05-19T14:28:39.490Z,3.33
2023-05-19T14:31:07.045Z,3.20
2023-05-19T14:33:35.568Z,3.10
2023-05-19T14:36:03.367Z,3.30
2023-05-19T14:38:30.454Z,3.77
2023-05-19T14:40:57.589Z,3.43
2023-05-19T14:43:25.051Z,3.23
2023-05-19T14:45:52.188Z,3.37
2023-05-19T14:48:19.370Z,3.50
2023-05-19T14:50:50.651Z,3.50
2023-05-19T14:53:17.818Z,3.30
2023-05-19T14:55:45.015Z,3.10
2023-05-19T14:58:27.533Z,3.40
2023-05-19T15:00:55.633Z,3.57
2023-05-19T15:03:23.533Z,3.27
2023-05-19T15:05:50.608Z,3.40
2023-05-19T15:08:17.696Z,3.20
2023-05-19T15:10:49.041Z,3.10
2023-05-19T15:13:18.688Z,3.07
2023-05-19T15:15:46.035Z,3.03
2023-05-19T15:18:15.984Z,3.73
2023-05-19T15:20:46.368Z,3.47
2023-05-19T15:23:13.452Z,3.53
2023-05-19T15:25:41.077Z,3.30
2023-05-19T15:28:08.381Z,3.00
2023-05-19T15:30:35.803Z,3.30
2023-05-19T15:33:03.586Z,3.43
2023-05-19T15:35:30.673Z,3.13
2023-05-19T15:37:57.803Z,3.60
2023-05-19T15:40:25.231Z,3.23
2023-05-19T15:42:52.320Z,3.30
2023-05-19T15:45:19.490Z,3.47
2023-05-19T15:47:46.995Z,3.33
2023-05-19T15:50:14.942Z,3.20
2023-05-19T15:52:43.851Z,3.60
2023-05-19T15:55:11.305Z,3.50
2023-05-19T15:57:38.396Z,3.60
2023-05-19T16:00:06.286Z,3.50
2023-05-19T16:02:33.921Z,4.17
2023-05-19T16:05:01.065Z,4.00
2023-05-19T16:07:28.198Z,3.80
2023-05-19T16:09:55.734Z,3.70
2023-05-19T16:12:24.167Z,3.77
2023-05-19T16:14:51.278Z,3.80
2023-05-19T16:17:18.933Z,3.73
2023-05-19T16:19:46.444Z,3.60
2023-05-19T16:22:13.695Z,3.67
2023-05-19T16:24:40.865Z,3.50
2023-05-19T16:27:07.944Z,3.40
2023-05-19T16:29:35.084Z,3.13
2023-05-19T16:32:02.615Z,3.60
2023-05-19T16:34:30.676Z,3.70
2023-05-19T16:36:57.896Z,3.23
2023-05-19T16:39:25.315Z,3.57
2023-05-19T16:41:53.116Z,3.43
2023-05-19T16:44:20.314Z,3.20
2023-05-19T16:46:47.484Z,3.43
2023-05-19T16:49:14.562Z,3.20
2023-05-19T16:51:41.711Z,3.00
2023-05-19T16:54:09.127Z,3.60
2023-05-19T16:56:36.274Z,3.33
2023-05-19T16:59:03.347Z,3.00
2023-05-19T17:01:32.071Z,3.10
2023-05-19T17:03:59.233Z,3.30
2023-05-19T17:06:26.387Z,3.03
2023-05-19T17:08:53.786Z,3.10
2023-05-19T17:11:21.393Z,2.97
2023-05-19T17:13:48.654Z,2.93
2023-05-19T17:16:16.248Z,3.20
2023-05-19T17:18:43.827Z,3.17
2023-05-19T17:21:11.211Z,3.17
2023-05-19T17:23:38.732Z,3.03
2023-05-19T17:26:05.898Z,3.50
2023-05-19T17:28:33.097Z,3.17
2023-05-19T17:31:00.398Z,3.30
2023-05-19T17:33:27.501Z,3.10
2023-05-19T17:35:54.631Z,3.07
2023-05-19T17:38:22.298Z,3.13
2023-05-19T17:40:49.445Z,3.00
2023-05-19T17:43:16.526Z,3.00
2023-05-19T17:45:43.958Z,3.30
2023-05-19T17:48:11.528Z,2.83
2023-05-19T17:50:38.740Z,3.17
2023-05-19T17:53:06.282Z,3.53
2023-05-19T17:55:33.688Z,3.20
2023-05-19T17:58:01.137Z,3.23
2023-05-19T18:00:28.713Z,3.00
2023-05-19T18:02:57.286Z,3.33
2023-05-19T18:05:24.636Z,3.30
2023-05-19T18:07:52.806Z,3.27
2023-05-19T18:10:20.485Z,3.20
2023-05-19T18:12:47.679Z,3.03
2023-05-19T18:15:15.111Z,3.53
2023-05-19T18:17:42.246Z,3.43
2023-05-19T18:20:09.600Z,4.07
2023-05-19T18:22:37.029Z,3.40
2023-05-19T18:25:04.186Z,3.73
2023-05-19T18:27:33.256Z,3.50
2023-05-19T18:30:00.736Z,3.60
2023-05-19T18:32:27.867Z,4.20
2023-05-19T18:34:55.112Z,3.70
2023-05-19T18:37:22.525Z,4.00
2023-05-19T18:39:49.614Z,4.40
2023-05-19T18:42:16.758Z,3.73
2023-05-19T18:44:46.797Z,3.70
2023-05-19T18:47:14.118Z,4.00
2023-05-19T18:49:42.053Z,3.97
2023-05-19T18:52:09.250Z,4.33
2023-05-19T18:54:37.489Z,4.27
2023-05-19T18:57:04.975Z,4.13
2023-05-19T18:59:32.373Z,4.57
2023-05-19T19:01:59.470Z,4.70
2023-05-19T19:04:26.694Z,4.40
2023-05-19T19:06:54.023Z,4.70
2023-05-19T19:09:21.119Z,4.60
2023-05-19T19:11:48.265Z,5.20
2023-05-19T19:14:15.451Z,5.07
2023-05-19T19:16:42.658Z,4.83
2023-05-19T19:19:10.043Z,4.73
2023-05-19T19:21:37.592Z,4.93
2023-05-19T19:24:04.844Z,5.20
2023-05-19T19:26:32.050Z,5.10
2023-05-19T19:28:59.258Z,4.97
2023-05-19T19:31:28.500Z,5.17
2023-05-19T19:33:58.905Z,5.13
2023-05-19T19:36:26.569Z,5.43
2023-05-19T19:38:53.740Z,5.40
2023-05-19T19:41:21.227Z,8.10
2023-05-19T19:43:48.324Z,6.00
2023-05-19T19:46:15.465Z,6.40
2023-05-19T19:48:42.742Z,5.53
2023-05-19T19:51:09.866Z,5.90
2023-05-19T19:53:36.961Z,6.10
2023-05-19T19:56:05.212Z,5.80
2023-05-19T19:58:32.328Z,5.77
2023-05-19T20:01:00.196Z,6.70
2023-05-19T20:03:28.114Z,6.23
2023-05-19T20:05:56.288Z,6.63
2023-05-19T20:08:23.857Z,6.43
2023-05-19T20:10:51.008Z,6.07
2023-05-19T20:13:18.400Z,6.57
2023-05-19T20:15:46.578Z,6.93
2023-05-19T20:18:13.830Z,6.30
2023-05-19T20:20:40.970Z,6.93
2023-05-19T20:23:08.176Z,6.63
2023-05-19T20:25:54.435Z,7.07
2023-05-19T20:28:26.165Z,6.90
2023-05-19T20:30:53.578Z,7.00
2023-05-19T20:33:21.161Z,6.80
2023-05-19T20:35:48.341Z,6.90
2023-05-19T20:38:15.502Z,7.40
2023-05-19T20:40:42.641Z,7.00
2023-05-19T20:43:09.747Z,7.20
2023-05-19T20:45:37.151Z,7.50
2023-05-19T20:48:04.678Z,6.93
2023-05-19T20:50:32.088Z,6.87
2023-05-19T20:52:59.803Z,7.43
2023-05-19T20:55:26.910Z,7.40
2023-05-19T20:57:54.054Z,7.17
2023-05-19T21:00:21.272Z,7.47
2023-05-19T21:02:48.412Z,7.73
2023-05-19T21:05:15.697Z,7.40
2023-05-19T21:07:42.929Z,7.57
2023-05-19T21:10:10.179Z,7.77
2023-05-19T21:12:37.270Z,7.80
2023-05-19T21:15:05.905Z,7.23
2023-05-19T21:17:33.488Z,6.80
2023-05-19T21:20:01.061Z,7.40
2023-05-19T21:22:28.204Z,7.07
2023-05-19T21:24:55.735Z,6.90
2023-05-19T21:27:22.895Z,7.33
2023-05-19T21:29:53.818Z,7.30
2023-05-19T21:32:21.659Z,7.00
2023-05-19T21:34:48.824Z,6.80
2023-05-19T21:37:17.279Z,7.13
2023-05-19T21:39:44.562Z,8.03
2023-05-19T21:42:11.717Z,7.33
2023-05-19T21:44:38.893Z,7.30
2023-05-19T21:47:06.675Z,7.03
2023-05-19T21:49:33.841Z,7.33
2023-05-19T21:52:01.192Z,7.47
2023-05-19T21:54:28.326Z,7.17
2023-05-19T21:56:55.440Z,7.77
2023-05-19T21:59:24.637Z,6.93
2023-05-19T22:01:51.858Z,7.00
2023-05-19T22:04:20.382Z,6.77
2023-05-19T22:06:47.731Z,7.50
2023-05-19T22:09:14.825Z,7.23
2023-05-19T22:11:42.005Z,7.67
2023-05-19T22:14:09.503Z,7.17
2023-05-19T22:16:36.647Z,6.70
2023-05-19T22:19:03.801Z,7.40
2023-05-19T22:21:31.922Z,7.40
2023-05-19T22:23:59.040Z,7.87
2023-05-19T22:26:27.100Z,8.27
2023-05-19T22:28:55.099Z,7.20
2023-05-19T22:31:22.294Z,7.57
2023-05-19T22:33:49.403Z,7.07
2023-05-19T22:36:16.818Z,7.40
2023-05-19T22:38:43.908Z,7.53
2023-05-19T22:41:11.083Z,7.80
2023-05-19T22:43:38.340Z,7.60
2023-05-19T22:46:05.860Z,7.47
2023-05-19T22:48:32.979Z,7.57
2023-05-19T22:51:00.423Z,7.60
2023-05-19T22:53:27.564Z,7.53
2023-05-19T22:55:54.670Z,7.73
2023-05-19T22:58:22.096Z,7.77
2023-05-19T23:00:49.245Z,7.77
2023-05-19T23:03:16.448Z,8.47
2023-05-19T23:05:43.892Z,8.43
2023-05-19T23:08:11.076Z,8.97
2023-05-19T23:10:38.523Z,9.00
2023-05-19T23:13:05.973Z,8.87
2023-05-19T23:15:33.236Z,8.10
2023-05-19T23:18:01.465Z,8.67
2023-05-19T23:20:28.746Z,7.63
2023-05-19T23:22:55.902Z,8.63
2023-05-19T23:25:23.016Z,8.30
2023-05-19T23:27:50.525Z,8.53
2023-05-19T23:30:17.621Z,8.67
2023-05-19T23:32:44.744Z,8.57
2023-05-19T23:35:16.604Z,8.60
2023-05-19T23:37:43.688Z,8.93
2023-05-19T23:40:11.348Z,8.93
2023-05-19T23:42:38.518Z,8.67
2023-05-19T23:45:06.167Z,9.10
2023-05-19T23:47:33.298Z,9.07
2023-05-19T23:50:00.721Z,9.00
2023-05-19T23:52:27.861Z,9.60
2023-05-19T23:54:55.022Z,9.33
2023-05-19T23:57:22.128Z,9.67
2023-05-19T23:59:49.266Z,9.60
